sensor_id;sensor_type;location;lat;lon;timestamp;P1;durP1;ratioP1;P2;durP2;ratioP2
2107;SDS011;1060;52.492;13.388;2023-06-26T00:02:21;16.17;;;14.93;;
2107;SDS011;1060;52.492;13.388;2023-06-26T00:05:01;15.77;;;14.27;;
2107;SDS011;1060;52.492;13.388;2023-06-26T00:07:45;16.00;;;14.67;;
2107;SDS011;1060;52.492;13.388;2023-06-26T00:10:19;17.20;;;15.20;;
2107;SDS011;1060;52.492;13.388;2023-06-26T00:12:53;16.70;;;15.20;;
2107;SDS011;1060;52.492;13.388;2023-06-26T00:15:51;15.90;;;14.70;;
2107;SDS011;1060;52.492;13.388;2023-06-26T00:18:17;17.93;;;15.97;;
2107;SDS011;1060;52.492;13.388;2023-06-26T00:20:48;15.83;;;14.30;;
2107;SDS011;1060;52.492;13.388;2023-06-26T00:23:31;17.00;;;15.70;;
2107;SDS011;1060;52.492;13.388;2023-06-26T00:26:06;17.23;;;15.80;;
2107;SDS011;1060;52.492;13.388;2023-06-26T00:28:35;14.90;;;13.50;;
2107;SDS011;1060;52.492;13.388;2023-06-26T00:31:13;16.43;;;15.13;;
2107;SDS011;1060;52.492;13.388;2023-06-26T00:33:48;16.57;;;15.20;;
2107;SDS011;1060;52.492;13.388;2023-06-26T00:36:51;20.97;;;19.07;;
2107;SDS011;1060;52.492;13.388;2023-06-26T00:39:29;18.90;;;17.20;;
2107;SDS011;1060;52.492;13.388;2023-06-26T00:42:03;18.77;;;17.27;;
2107;SDS011;1060;52.492;13.388;2023-06-26T00:44:32;15.00;;;13.90;;
2107;SDS011;1060;52.492;13.388;2023-06-26T00:47:01;17.67;;;16.03;;
2107;SDS011;1060;52.492;13.388;2023-06-26T00:49:30;24.23;;;20.73;;
2107;SDS011;1060;52.492;13.388;2023-06-26T00:52:05;19.77;;;17.80;;
2107;SDS011;1060;52.492;13.388;2023-06-26T00:54:39;17.00;;;15.67;;
2107;SDS011;1060;52.492;13.388;2023-06-26T00:57:11;19.37;;;17.80;;
2107;SDS011;1060;52.492;13.388;2023-06-26T00:59:46;31.17;;;28.23;;
2107;SDS011;1060;52.492;13.388;2023-06-26T01:02:12;23.63;;;21.73;;
2107;SDS011;1060;52.492;13.388;2023-06-26T01:04:54;23.93;;;21.93;;
2107;SDS011;1060;52.492;13.388;2023-06-26T01:07:22;19.70;;;17.93;;
2107;SDS011;1060;52.492;13.388;2023-06-26T01:10:00;24.87;;;22.63;;
2107;SDS011;1060;52.492;13.388;2023-06-26T01:12:33;27.50;;;24.80;;
2107;SDS011;1060;52.492;13.388;2023-06-26T01:15:33;17.40;;;15.90;;
2107;SDS011;1060;52.492;13.388;2023-06-26T01:18:00;17.27;;;15.87;;
2107;SDS011;1060;52.492;13.388;2023-06-26T01:20:31;20.30;;;18.50;;
2107;SDS011;1060;52.492;13.388;2023-06-26T01:23:15;20.43;;;18.57;;
2107;SDS011;1060;52.492;13.388;2023-06-26T01:28:17;17.37;;;15.97;;
2107;SDS011;1060;52.492;13.388;2023-06-26T01:30:51;15.03;;;13.83;;
2107;SDS011;1060;52.492;13.388;2023-06-26T01:33:18;16.67;;;15.27;;
2107;SDS011;1060;52.492;13.388;2023-06-26T01:36:24;16.17;;;14.97;;
2107;SDS011;1060;52.492;13.388;2023-06-26T01:38:48;17.37;;;15.87;;
2107;SDS011;1060;52.492;13.388;2023-06-26T01:41:18;16.60;;;15.20;;
2107;SDS011;1060;52.492;13.388;2023-06-26T01:44:05;16.90;;;15.50;;
2107;SDS011;1060;52.492;13.388;2023-06-26T01:57:47;16.87;;;15.47;;
2107;SDS011;1060;52.492;13.388;2023-06-26T02:00:25;18.47;;;16.87;;
2107;SDS011;1060;52.492;13.388;2023-06-26T02:03:12;15.90;;;14.80;;
2107;SDS011;1060;52.492;13.388;2023-06-26T02:05:51;16.33;;;14.93;;
2107;SDS011;1060;52.492;13.388;2023-06-26T02:08:21;17.43;;;15.97;;
2107;SDS011;1060;52.492;13.388;2023-06-26T02:10:55;18.17;;;16.87;;
2107;SDS011;1060;52.492;13.388;2023-06-26T02:13:22;18.57;;;17.07;;
2107;SDS011;1060;52.492;13.388;2023-06-26T02:15:48;16.87;;;15.47;;
2107;SDS011;1060;52.492;13.388;2023-06-26T02:18:14;23.67;;;21.67;;
2107;SDS011;1060;52.492;13.388;2023-06-26T02:20:41;18.80;;;17.10;;
2107;SDS011;1060;52.492;13.388;2023-06-26T02:23:09;18.77;;;17.30;;
2107;SDS011;1060;52.492;13.388;2023-06-26T02:25:35;16.93;;;15.47;;
2107;SDS011;1060;52.492;13.388;2023-06-26T02:28:01;16.77;;;15.37;;
2107;SDS011;1060;52.492;13.388;2023-06-26T02:30:27;17.70;;;16.40;;
2107;SDS011;1060;52.492;13.388;2023-06-26T02:32:54;17.10;;;15.50;;
2107;SDS011;1060;52.492;13.388;2023-06-26T02:35:20;17.30;;;15.93;;
2107;SDS011;1060;52.492;13.388;2023-06-26T02:37:46;18.73;;;17.30;;
2107;SDS011;1060;52.492;13.388;2023-06-26T02:40:15;18.13;;;16.73;;
2107;SDS011;1060;52.492;13.388;2023-06-26T02:42:41;18.43;;;16.73;;
2107;SDS011;1060;52.492;13.388;2023-06-26T02:45:07;19.70;;;18.20;;
2107;SDS011;1060;52.492;13.388;2023-06-26T02:47:34;18.33;;;16.80;;
2107;SDS011;1060;52.492;13.388;2023-06-26T02:50:02;17.77;;;16.03;;
2107;SDS011;1060;52.492;13.388;2023-06-26T02:52:42;18.33;;;16.93;;
2107;SDS011;1060;52.492;13.388;2023-06-26T02:55:09;18.63;;;17.20;;
2107;SDS011;1060;52.492;13.388;2023-06-26T02:57:35;18.17;;;16.63;;
2107;SDS011;1060;52.492;13.388;2023-06-26T03:00:04;19.47;;;17.97;;
2107;SDS011;1060;52.492;13.388;2023-06-26T03:02:34;20.37;;;18.73;;
2107;SDS011;1060;52.492;13.388;2023-06-26T03:05:06;19.67;;;18.17;;
2107;SDS011;1060;52.492;13.388;2023-06-26T03:07:33;19.37;;;17.80;;
2107;SDS011;1060;52.492;13.388;2023-06-26T03:10:00;18.77;;;17.40;;
2107;SDS011;1060;52.492;13.388;2023-06-26T03:12:26;19.90;;;18.50;;
2107;SDS011;1060;52.492;13.388;2023-06-26T03:14:52;19.63;;;17.60;;
2107;SDS011;1060;52.492;13.388;2023-06-26T03:17:18;20.10;;;18.43;;
2107;SDS011;1060;52.492;13.388;2023-06-26T03:19:46;18.80;;;17.40;;
2107;SDS011;1060;52.492;13.388;2023-06-26T03:22:20;20.57;;;18.90;;
2107;SDS011;1060;52.492;13.388;2023-06-26T03:24:47;19.93;;;18.10;;
2107;SDS011;1060;52.492;13.388;2023-06-26T03:27:13;20.70;;;19.00;;
2107;SDS011;1060;52.492;13.388;2023-06-26T03:29:40;20.30;;;18.70;;
2107;SDS011;1060;52.492;13.388;2023-06-26T03:32:07;19.57;;;18.07;;
2107;SDS011;1060;52.492;13.388;2023-06-26T03:34:34;20.73;;;19.07;;
2107;SDS011;1060;52.492;13.388;2023-06-26T03:37:00;21.13;;;19.43;;
2107;SDS011;1060;52.492;13.388;2023-06-26T03:39:27;20.47;;;18.77;;
2107;SDS011;1060;52.492;13.388;2023-06-26T03:41:54;20.87;;;19.13;;
2107;SDS011;1060;52.492;13.388;2023-06-26T03:44:22;20.83;;;19.07;;
2107;SDS011;1060;52.492;13.388;2023-06-26T03:46:48;19.60;;;18.10;;
2107;SDS011;1060;52.492;13.388;2023-06-26T03:49:16;20.37;;;18.80;;
2107;SDS011;1060;52.492;13.388;2023-06-26T03:51:43;19.97;;;18.37;;
2107;SDS011;1060;52.492;13.388;2023-06-26T03:54:09;18.57;;;17.00;;
2107;SDS011;1060;52.492;13.388;2023-06-26T03:56:35;20.60;;;19.00;;
2107;SDS011;1060;52.492;13.388;2023-06-26T03:59:04;20.47;;;18.67;;
2107;SDS011;1060;52.492;13.388;2023-06-26T04:01:31;21.17;;;19.40;;
2107;SDS011;1060;52.492;13.388;2023-06-26T04:03:57;19.50;;;18.10;;
2107;SDS011;1060;52.492;13.388;2023-06-26T04:06:23;21.03;;;19.23;;
2107;SDS011;1060;52.492;13.388;2023-06-26T04:08:49;20.50;;;18.60;;
2107;SDS011;1060;52.492;13.388;2023-06-26T04:11:15;21.17;;;19.47;;
2107;SDS011;1060;52.492;13.388;2023-06-26T04:13:42;20.03;;;18.20;;
2107;SDS011;1060;52.492;13.388;2023-06-26T04:16:08;19.23;;;17.73;;
2107;SDS011;1060;52.492;13.388;2023-06-26T04:18:36;17.93;;;16.23;;
2107;SDS011;1060;52.492;13.388;2023-06-26T04:21:07;17.40;;;16.20;;
2107;SDS011;1060;52.492;13.388;2023-06-26T04:23:33;18.50;;;17.00;;
2107;SDS011;1060;52.492;13.388;2023-06-26T04:26:00;19.77;;;18.07;;
2107;SDS011;1060;52.492;13.388;2023-06-26T04:28:28;17.90;;;16.60;;
2107;SDS011;1060;52.492;13.388;2023-06-26T04:30:57;20.03;;;18.13;;
2107;SDS011;1060;52.492;13.388;2023-06-26T04:33:24;17.90;;;16.50;;
2107;SDS011;1060;52.492;13.388;2023-06-26T04:35:51;18.20;;;16.83;;
2107;SDS011;1060;52.492;13.388;2023-06-26T04:38:17;18.80;;;16.87;;
2107;SDS011;1060;52.492;13.388;2023-06-26T04:40:44;18.27;;;16.77;;
2107;SDS011;1060;52.492;13.388;2023-06-26T04:43:10;20.90;;;19.20;;
2107;SDS011;1060;52.492;13.388;2023-06-26T04:45:36;16.47;;;15.13;;
2107;SDS011;1060;52.492;13.388;2023-06-26T04:48:03;19.10;;;17.13;;
2107;SDS011;1060;52.492;13.388;2023-06-26T04:50:30;20.40;;;18.90;;
2107;SDS011;1060;52.492;13.388;2023-06-26T04:52:57;16.50;;;15.10;;
2107;SDS011;1060;52.492;13.388;2023-06-26T04:55:26;18.00;;;16.70;;
2107;SDS011;1060;52.492;13.388;2023-06-26T04:57:53;17.90;;;16.50;;
2107;SDS011;1060;52.492;13.388;2023-06-26T05:00:19;16.50;;;15.30;;
2107;SDS011;1060;52.492;13.388;2023-06-26T05:02:45;17.23;;;15.80;;
2107;SDS011;1060;52.492;13.388;2023-06-26T05:05:14;17.13;;;15.73;;
2107;SDS011;1060;52.492;13.388;2023-06-26T05:07:44;17.47;;;16.13;;
2107;SDS011;1060;52.492;13.388;2023-06-26T05:10:22;16.70;;;15.50;;
2107;SDS011;1060;52.492;13.388;2023-06-26T05:12:48;17.50;;;16.00;;
2107;SDS011;1060;52.492;13.388;2023-06-26T05:15:36;16.63;;;15.43;;
2107;SDS011;1060;52.492;13.388;2023-06-26T05:18:01;14.10;;;12.87;;
2107;SDS011;1060;52.492;13.388;2023-06-26T05:20:42;14.80;;;13.53;;
2107;SDS011;1060;52.492;13.388;2023-06-26T05:23:14;17.40;;;15.80;;
2107;SDS011;1060;52.492;13.388;2023-06-26T05:25:41;15.40;;;13.90;;
2107;SDS011;1060;52.492;13.388;2023-06-26T05:28:08;16.37;;;15.07;;
2107;SDS011;1060;52.492;13.388;2023-06-26T05:30:36;17.90;;;16.37;;
2107;SDS011;1060;52.492;13.388;2023-06-26T05:33:02;15.67;;;14.50;;
2107;SDS011;1060;52.492;13.388;2023-06-26T05:35:40;16.63;;;15.13;;
2107;SDS011;1060;52.492;13.388;2023-06-26T05:38:07;15.80;;;14.60;;
2107;SDS011;1060;52.492;13.388;2023-06-26T05:40:38;15.50;;;14.10;;
2107;SDS011;1060;52.492;13.388;2023-06-26T05:43:06;15.47;;;14.37;;
2107;SDS011;1060;52.492;13.388;2023-06-26T05:45:32;14.83;;;13.53;;
2107;SDS011;1060;52.492;13.388;2023-06-26T05:47:59;14.30;;;13.30;;
2107;SDS011;1060;52.492;13.388;2023-06-26T05:50:25;14.87;;;13.73;;
2107;SDS011;1060;52.492;13.388;2023-06-26T05:52:52;14.97;;;13.97;;
2107;SDS011;1060;52.492;13.388;2023-06-26T05:55:18;14.60;;;13.27;;
2107;SDS011;1060;52.492;13.388;2023-06-26T05:57:48;15.00;;;13.80;;
2107;SDS011;1060;52.492;13.388;2023-06-26T06:00:15;16.40;;;15.20;;
2107;SDS011;1060;52.492;13.388;2023-06-26T06:02:42;14.50;;;13.40;;
2107;SDS011;1060;52.492;13.388;2023-06-26T06:05:08;15.47;;;14.27;;
2107;SDS011;1060;52.492;13.388;2023-06-26T06:07:35;25.07;;;22.97;;
2107;SDS011;1060;52.492;13.388;2023-06-26T06:10:04;15.93;;;14.80;;
2107;SDS011;1060;52.492;13.388;2023-06-26T06:12:31;12.10;;;11.10;;
2107;SDS011;1060;52.492;13.388;2023-06-26T06:14:57;12.80;;;11.90;;
2107;SDS011;1060;52.492;13.388;2023-06-26T06:17:23;11.47;;;10.40;;
2107;SDS011;1060;52.492;13.388;2023-06-26T06:19:49;10.60;;;9.77;;
2107;SDS011;1060;52.492;13.388;2023-06-26T06:22:15;11.03;;;10.27;;
2107;SDS011;1060;52.492;13.388;2023-06-26T06:24:45;10.73;;;10.03;;
2107;SDS011;1060;52.492;13.388;2023-06-26T06:27:11;11.27;;;10.13;;
2107;SDS011;1060;52.492;13.388;2023-06-26T06:29:38;11.60;;;10.70;;
2107;SDS011;1060;52.492;13.388;2023-06-26T06:32:04;10.70;;;9.80;;
2107;SDS011;1060;52.492;13.388;2023-06-26T06:34:31;10.87;;;9.83;;
2107;SDS011;1060;52.492;13.388;2023-06-26T06:36:57;11.13;;;10.10;;
2107;SDS011;1060;52.492;13.388;2023-06-26T06:39:23;12.50;;;10.33;;
2107;SDS011;1060;52.492;13.388;2023-06-26T06:41:50;11.80;;;10.70;;
2107;SDS011;1060;52.492;13.388;2023-06-26T06:44:16;11.73;;;10.53;;
2107;SDS011;1060;52.492;13.388;2023-06-26T06:46:42;9.40;;;8.47;;
2107;SDS011;1060;52.492;13.388;2023-06-26T06:49:09;8.87;;;8.13;;
2107;SDS011;1060;52.492;13.388;2023-06-26T06:51:35;9.57;;;8.97;;
2107;SDS011;1060;52.492;13.388;2023-06-26T06:54:01;7.23;;;6.60;;
2107;SDS011;1060;52.492;13.388;2023-06-26T06:56:27;16.77;;;12.07;;
2107;SDS011;1060;52.492;13.388;2023-06-26T06:58:56;13.40;;;11.30;;
2107;SDS011;1060;52.492;13.388;2023-06-26T07:01:22;10.53;;;9.73;;
2107;SDS011;1060;52.492;13.388;2023-06-26T07:03:52;8.47;;;7.80;;
2107;SDS011;1060;52.492;13.388;2023-06-26T07:06:19;8.30;;;7.63;;
2107;SDS011;1060;52.492;13.388;2023-06-26T07:08:48;8.30;;;7.70;;
2107;SDS011;1060;52.492;13.388;2023-06-26T07:11:18;7.70;;;7.17;;
2107;SDS011;1060;52.492;13.388;2023-06-26T07:13:44;9.90;;;8.90;;
2107;SDS011;1060;52.492;13.388;2023-06-26T07:16:12;8.73;;;7.90;;
2107;SDS011;1060;52.492;13.388;2023-06-26T07:18:40;35.70;;;33.43;;
2107;SDS011;1060;52.492;13.388;2023-06-26T07:21:07;8.50;;;7.90;;
2107;SDS011;1060;52.492;13.388;2023-06-26T07:34:39;8.60;;;8.00;;
2107;SDS011;1060;52.492;13.388;2023-06-26T07:37:14;8.67;;;8.07;;
2107;SDS011;1060;52.492;13.388;2023-06-26T07:39:54;10.90;;;9.90;;
2107;SDS011;1060;52.492;13.388;2023-06-26T07:42:36;9.93;;;9.03;;
2107;SDS011;1060;52.492;13.388;2023-06-26T07:50:40;9.80;;;8.63;;
2107;SDS011;1060;52.492;13.388;2023-06-26T07:53:11;11.37;;;9.03;;
2107;SDS011;1060;52.492;13.388;2023-06-26T07:55:46;9.73;;;9.00;;
2107;SDS011;1060;52.492;13.388;2023-06-26T07:58:21;8.20;;;7.60;;
2107;SDS011;1060;52.492;13.388;2023-06-26T08:57:48;7.20;;;6.60;;
2107;SDS011;1060;52.492;13.388;2023-06-26T09:00:14;6.20;;;5.70;;
2107;SDS011;1060;52.492;13.388;2023-06-26T09:02:40;6.77;;;6.23;;
2107;SDS011;1060;52.492;13.388;2023-06-26T09:05:07;6.30;;;5.57;;
2107;SDS011;1060;52.492;13.388;2023-06-26T09:07:33;7.37;;;6.23;;
2107;SDS011;1060;52.492;13.388;2023-06-26T09:09:59;10.03;;;6.00;;
2107;SDS011;1060;52.492;13.388;2023-06-26T09:12:29;6.63;;;6.03;;
2107;SDS011;1060;52.492;13.388;2023-06-26T09:14:55;5.20;;;4.80;;
2107;SDS011;1060;52.492;13.388;2023-06-26T09:17:40;8.83;;;8.03;;
2107;SDS011;1060;52.492;13.388;2023-06-26T09:20:10;6.53;;;5.73;;
2107;SDS011;1060;52.492;13.388;2023-06-26T09:22:37;7.30;;;6.70;;
2107;SDS011;1060;52.492;13.388;2023-06-26T09:25:07;8.10;;;7.50;;
2107;SDS011;1060;52.492;13.388;2023-06-26T09:27:36;9.87;;;8.90;;
2107;SDS011;1060;52.492;13.388;2023-06-26T09:30:03;8.87;;;8.17;;
2107;SDS011;1060;52.492;13.388;2023-06-26T09:32:35;10.17;;;6.87;;
2107;SDS011;1060;52.492;13.388;2023-06-26T09:35:04;8.73;;;7.30;;
2107;SDS011;1060;52.492;13.388;2023-06-26T09:37:31;6.97;;;6.40;;
2107;SDS011;1060;52.492;13.388;2023-06-26T09:39:58;7.20;;;6.60;;
2107;SDS011;1060;52.492;13.388;2023-06-26T09:42:24;7.10;;;6.60;;
2107;SDS011;1060;52.492;13.388;2023-06-26T09:44:51;5.30;;;4.97;;
2107;SDS011;1060;52.492;13.388;2023-06-26T09:47:23;5.57;;;5.17;;
2107;SDS011;1060;52.492;13.388;2023-06-26T09:49:50;5.90;;;5.40;;
2107;SDS011;1060;52.492;13.388;2023-06-26T09:52:17;5.93;;;5.47;;
2107;SDS011;1060;52.492;13.388;2023-06-26T09:54:45;8.57;;;7.93;;
2107;SDS011;1060;52.492;13.388;2023-06-26T09:57:18;5.50;;;5.10;;
2107;SDS011;1060;52.492;13.388;2023-06-26T09:59:45;6.50;;;5.90;;
2107;SDS011;1060;52.492;13.388;2023-06-26T10:02:11;5.30;;;4.90;;
2107;SDS011;1060;52.492;13.388;2023-06-26T10:04:40;4.77;;;4.33;;
2107;SDS011;1060;52.492;13.388;2023-06-26T10:07:12;6.97;;;5.53;;
2107;SDS011;1060;52.492;13.388;2023-06-26T10:09:41;6.00;;;5.60;;
2107;SDS011;1060;52.492;13.388;2023-06-26T10:12:12;6.00;;;5.50;;
2107;SDS011;1060;52.492;13.388;2023-06-26T10:14:41;7.90;;;6.47;;
2107;SDS011;1060;52.492;13.388;2023-06-26T10:17:09;6.80;;;6.10;;
2107;SDS011;1060;52.492;13.388;2023-06-26T10:19:37;5.63;;;5.10;;
2107;SDS011;1060;52.492;13.388;2023-06-26T10:22:06;8.57;;;6.03;;
2107;SDS011;1060;52.492;13.388;2023-06-26T10:24:33;5.13;;;4.77;;
2107;SDS011;1060;52.492;13.388;2023-06-26T10:27:08;6.50;;;6.03;;
2107;SDS011;1060;52.492;13.388;2023-06-26T10:29:36;4.90;;;4.60;;
2107;SDS011;1060;52.492;13.388;2023-06-26T10:32:03;6.60;;;6.10;;
2107;SDS011;1060;52.492;13.388;2023-06-26T10:34:30;6.27;;;5.87;;
2107;SDS011;1060;52.492;13.388;2023-06-26T10:37:00;5.57;;;5.17;;
2107;SDS011;1060;52.492;13.388;2023-06-26T10:42:35;6.13;;;5.57;;
2107;SDS011;1060;52.492;13.388;2023-06-26T10:45:09;7.30;;;5.90;;
2107;SDS011;1060;52.492;13.388;2023-06-26T10:47:36;4.87;;;4.50;;
2107;SDS011;1060;52.492;13.388;2023-06-26T10:59:15;6.57;;;6.07;;
2107;SDS011;1060;52.492;13.388;2023-06-26T11:05:10;8.83;;;7.80;;
2107;SDS011;1060;52.492;13.388;2023-06-26T11:45:46;6.60;;;6.10;;
2107;SDS011;1060;52.492;13.388;2023-06-26T12:49:00;6.30;;;5.90;;
2107;SDS011;1060;52.492;13.388;2023-06-26T12:51:53;7.60;;;7.00;;
2107;SDS011;1060;52.492;13.388;2023-06-26T12:54:20;7.50;;;6.90;;
2107;SDS011;1060;52.492;13.388;2023-06-26T12:56:49;7.63;;;7.13;;
2107;SDS011;1060;52.492;13.388;2023-06-26T12:59:15;8.43;;;7.43;;
2107;SDS011;1060;52.492;13.388;2023-06-26T13:01:44;8.30;;;7.37;;
2107;SDS011;1060;52.492;13.388;2023-06-26T13:04:10;10.43;;;9.43;;
2107;SDS011;1060;52.492;13.388;2023-06-26T13:06:37;7.60;;;7.10;;
2107;SDS011;1060;52.492;13.388;2023-06-26T13:09:03;7.80;;;7.20;;
2107;SDS011;1060;52.492;13.388;2023-06-26T13:11:34;6.90;;;6.40;;
2107;SDS011;1060;52.492;13.388;2023-06-26T13:14:03;8.63;;;7.77;;
2107;SDS011;1060;52.492;13.388;2023-06-26T13:16:36;9.47;;;8.77;;
2107;SDS011;1060;52.492;13.388;2023-06-26T13:19:02;7.37;;;6.70;;
2107;SDS011;1060;52.492;13.388;2023-06-26T13:21:28;7.47;;;6.87;;
2107;SDS011;1060;52.492;13.388;2023-06-26T13:23:57;7.80;;;7.30;;
2107;SDS011;1060;52.492;13.388;2023-06-26T13:26:24;9.27;;;7.40;;
2107;SDS011;1060;52.492;13.388;2023-06-26T13:28:51;13.67;;;9.23;;
2107;SDS011;1060;52.492;13.388;2023-06-26T13:31:18;9.50;;;8.73;;
2107;SDS011;1060;52.492;13.388;2023-06-26T13:33:44;8.50;;;7.80;;
2107;SDS011;1060;52.492;13.388;2023-06-26T13:36:11;12.20;;;9.27;;
2107;SDS011;1060;52.492;13.388;2023-06-26T13:38:37;7.57;;;6.97;;
2107;SDS011;1060;52.492;13.388;2023-06-26T13:41:03;7.73;;;7.13;;
2107;SDS011;1060;52.492;13.388;2023-06-26T13:43:30;8.40;;;7.80;;
2107;SDS011;1060;52.492;13.388;2023-06-26T13:45:56;8.57;;;7.83;;
2107;SDS011;1060;52.492;13.388;2023-06-26T13:48:23;8.97;;;8.07;;
2107;SDS011;1060;52.492;13.388;2023-06-26T13:50:52;10.47;;;8.90;;
2107;SDS011;1060;52.492;13.388;2023-06-26T13:53:19;7.23;;;6.63;;
2107;SDS011;1060;52.492;13.388;2023-06-26T13:55:45;8.10;;;7.60;;
2107;SDS011;1060;52.492;13.388;2023-06-26T13:58:11;8.07;;;7.37;;
2107;SDS011;1060;52.492;13.388;2023-06-26T14:00:38;9.23;;;8.63;;
2107;SDS011;1060;52.492;13.388;2023-06-26T14:03:07;11.70;;;10.70;;
2107;SDS011;1060;52.492;13.388;2023-06-26T14:05:40;7.70;;;7.10;;
2107;SDS011;1060;52.492;13.388;2023-06-26T14:08:21;8.23;;;7.63;;
2107;SDS011;1060;52.492;13.388;2023-06-26T14:11:00;7.63;;;6.90;;
2107;SDS011;1060;52.492;13.388;2023-06-26T14:13:37;8.10;;;7.50;;
2107;SDS011;1060;52.492;13.388;2023-06-26T14:16:12;8.37;;;7.77;;
2107;SDS011;1060;52.492;13.388;2023-06-26T14:18:44;9.37;;;8.27;;
2107;SDS011;1060;52.492;13.388;2023-06-26T14:24:00;15.70;;;7.37;;
2107;SDS011;1060;52.492;13.388;2023-06-26T14:27:16;18.00;;;7.73;;
2107;SDS011;1060;52.492;13.388;2023-06-26T14:30:10;17.33;;;8.00;;
2107;SDS011;1060;52.492;13.388;2023-06-26T14:32:42;0.70;;;0.50;;
2107;SDS011;1060;52.492;13.388;2023-06-26T14:35:14;0.70;;;0.50;;
2107;SDS011;1060;52.492;13.388;2023-06-26T14:37:56;1.20;;;0.90;;
2107;SDS011;1060;52.492;13.388;2023-06-26T14:41:06;2.10;;;2.00;;
2107;SDS011;1060;52.492;13.388;2023-06-26T14:43:44;0.70;;;0.50;;
2107;SDS011;1060;52.492;13.388;2023-06-26T14:46:16;1.93;;;1.00;;
2107;SDS011;1060;52.492;13.388;2023-06-26T14:49:03;0.70;;;0.50;;
2107;SDS011;1060;52.492;13.388;2023-06-26T14:51:38;12.87;;;11.87;;
2107;SDS011;1060;52.492;13.388;2023-06-26T14:54:09;20.40;;;14.27;;
2107;SDS011;1060;52.492;13.388;2023-06-26T14:57:18;19.37;;;15.53;;
2107;SDS011;1060;52.492;13.388;2023-06-26T15:13:06;0.60;;;0.50;;
2107;SDS011;1060;52.492;13.388;2023-06-26T15:15:48;0.60;;;0.50;;
2107;SDS011;1060;52.492;13.388;2023-06-26T17:52:51;11.60;;;9.40;;
2107;SDS011;1060;52.492;13.388;2023-06-26T18:13:05;14.30;;;9.73;;
2107;SDS011;1060;52.492;13.388;2023-06-26T19:11:15;8.43;;;7.20;;
2107;SDS011;1060;52.492;13.388;2023-06-26T19:14:14;11.30;;;8.43;;
2107;SDS011;1060;52.492;13.388;2023-06-26T19:17:05;11.90;;;7.57;;
2107;SDS011;1060;52.492;13.388;2023-06-26T19:20:16;10.93;;;8.33;;
2107;SDS011;1060;52.492;13.388;2023-06-26T19:51:26;3.67;;;3.37;;
2107;SDS011;1060;52.492;13.388;2023-06-26T21:39:50;3.20;;;2.20;;
2107;SDS011;1060;52.492;13.388;2023-06-26T21:42:16;2.23;;;2.03;;
2107;SDS011;1060;52.492;13.388;2023-06-26T21:44:42;5.83;;;2.33;;
2107;SDS011;1060;52.492;13.388;2023-06-26T21:47:09;2.90;;;2.10;;
2107;SDS011;1060;52.492;13.388;2023-06-26T21:49:38;2.43;;;1.90;;
2107;SDS011;1060;52.492;13.388;2023-06-26T22:02:53;2.87;;;2.60;;
2107;SDS011;1060;52.492;13.388;2023-06-26T22:05:19;2.73;;;2.43;;
2107;SDS011;1060;52.492;13.388;2023-06-26T22:07:47;4.13;;;2.80;;
2107;SDS011;1060;52.492;13.388;2023-06-26T22:10:16;1.87;;;1.70;;
2107;SDS011;1060;52.492;13.388;2023-06-26T22:12:43;5.20;;;2.27;;
2107;SDS011;1060;52.492;13.388;2023-06-26T22:15:16;11.00;;;3.30;;
2107;SDS011;1060;52.492;13.388;2023-06-26T22:17:50;2.90;;;1.83;;
2107;SDS011;1060;52.492;13.388;2023-06-26T22:20:17;2.27;;;1.67;;
2107;SDS011;1060;52.492;13.388;2023-06-26T22:22:46;6.53;;;2.10;;
2107;SDS011;1060;52.492;13.388;2023-06-26T22:25:12;4.33;;;2.20;;
2107;SDS011;1060;52.492;13.388;2023-06-26T22:27:49;2.63;;;2.07;;
2107;SDS011;1060;52.492;13.388;2023-06-26T22:30:17;4.80;;;2.10;;
2107;SDS011;1060;52.492;13.388;2023-06-26T22:32:43;3.07;;;2.80;;
2107;SDS011;1060;52.492;13.388;2023-06-26T22:35:10;3.60;;;2.30;;
2107;SDS011;1060;52.492;13.388;2023-06-26T22:37:37;3.10;;;2.10;;
2107;SDS011;1060;52.492;13.388;2023-06-26T22:40:04;3.30;;;2.10;;
2107;SDS011;1060;52.492;13.388;2023-06-26T22:42:33;4.23;;;2.23;;
2107;SDS011;1060;52.492;13.388;2023-06-26T22:45:01;3.20;;;1.90;;
2107;SDS011;1060;52.492;13.388;2023-06-26T22:47:30;4.10;;;2.90;;
2107;SDS011;1060;52.492;13.388;2023-06-26T22:49:56;7.73;;;2.97;;
2107;SDS011;1060;52.492;13.388;2023-06-26T22:52:23;3.00;;;2.53;;
2107;SDS011;1060;52.492;13.388;2023-06-26T22:54:49;3.47;;;2.30;;
2107;SDS011;1060;52.492;13.388;2023-06-26T22:57:15;2.07;;;1.80;;
2107;SDS011;1060;52.492;13.388;2023-06-26T22:59:41;5.33;;;2.20;;
2107;SDS011;1060;52.492;13.388;2023-06-26T23:02:08;6.37;;;2.40;;
2107;SDS011;1060;52.492;13.388;2023-06-26T23:04:34;7.87;;;4.27;;
2107;SDS011;1060;52.492;13.388;2023-06-26T23:07:00;2.50;;;2.27;;
2107;SDS011;1060;52.492;13.388;2023-06-26T23:09:26;3.30;;;3.00;;
2107;SDS011;1060;52.492;13.388;2023-06-26T23:11:52;5.83;;;2.63;;
2107;SDS011;1060;52.492;13.388;2023-06-26T23:14:19;4.33;;;2.73;;
2107;SDS011;1060;52.492;13.388;2023-06-26T23:16:54;3.23;;;2.90;;
2107;SDS011;1060;52.492;13.388;2023-06-26T23:19:28;3.03;;;2.30;;
2107;SDS011;1060;52.492;13.388;2023-06-26T23:21:55;3.80;;;2.70;;
2107;SDS011;1060;52.492;13.388;2023-06-26T23:24:22;5.00;;;3.27;;
2107;SDS011;1060;52.492;13.388;2023-06-26T23:26:48;6.00;;;3.00;;
2107;SDS011;1060;52.492;13.388;2023-06-26T23:29:14;2.70;;;2.50;;
2107;SDS011;1060;52.492;13.388;2023-06-26T23:31:46;3.97;;;2.50;;
2107;SDS011;1060;52.492;13.388;2023-06-26T23:34:15;2.60;;;2.23;;
2107;SDS011;1060;52.492;13.388;2023-06-26T23:36:47;2.90;;;2.70;;
2107;SDS011;1060;52.492;13.388;2023-06-26T23:39:17;3.33;;;2.87;;
2107;SDS011;1060;52.492;13.388;2023-06-26T23:41:43;2.83;;;2.50;;
2107;SDS011;1060;52.492;13.388;2023-06-26T23:44:10;3.23;;;2.03;;
2107;SDS011;1060;52.492;13.388;2023-06-26T23:46:39;4.40;;;3.57;;
2107;SDS011;1060;52.492;13.388;2023-06-26T23:49:08;4.97;;;3.40;;
2107;SDS011;1060;52.492;13.388;2023-06-26T23:51:34;3.40;;;3.10;;
2107;SDS011;1060;52.492;13.388;2023-06-26T23:54:01;6.33;;;3.33;;
2107;SDS011;1060;52.492;13.388;2023-06-26T23:56:28;6.00;;;2.77;;
2107;SDS011;1060;52.492;13.388;2023-06-26T23:58:54;3.97;;;3.43;;
